sensor_id;sensor_type;location;lat;lon;timestamp;P1;durP1;ratioP1;P2;durP2;ratioP2
40459;SDS011;26164;51.138;16.952;2022-12-29T00:02:25;4.97;;;1.63;;
40459;SDS011;26164;51.138;16.952;2022-12-29T00:04:52;5.38;;;1.80;;
40459;SDS011;26164;51.138;16.952;2022-12-29T00:07:17;4.20;;;1.67;;
40459;SDS011;26164;51.138;16.952;2022-12-29T00:09:44;3.47;;;1.48;;
40459;SDS011;26164;51.138;16.952;2022-12-29T00:12:10;4.20;;;1.70;;
40459;SDS011;26164;51.138;16.952;2022-12-29T00:14:36;4.47;;;1.73;;
40459;SDS011;26164;51.138;16.952;2022-12-29T00:17:20;5.03;;;1.83;;
40459;SDS011;26164;51.138;16.952;2022-12-29T00:19:46;4.03;;;1.67;;
40459;SDS011;26164;51.138;16.952;2022-12-29T00:22:30;6.10;;;2.00;;
40459;SDS011;26164;51.138;16.952;2022-12-29T00:25:15;6.07;;;2.22;;
40459;SDS011;26164;51.138;16.952;2022-12-29T00:27:59;6.50;;;2.25;;
40459;SDS011;26164;51.138;16.952;2022-12-29T00:30:44;8.35;;;2.75;;
40459;SDS011;26164;51.138;16.952;2022-12-29T00:33:29;9.33;;;3.10;;
40459;SDS011;26164;51.138;16.952;2022-12-29T00:36:35;7.65;;;2.30;;
40459;SDS011;26164;51.138;16.952;2022-12-29T00:39:07;10.18;;;3.33;;
40459;SDS011;26164;51.138;16.952;2022-12-29T00:41:56;9.13;;;3.65;;
40459;SDS011;26164;51.138;16.952;2022-12-29T00:47:09;10.07;;;2.80;;
40459;SDS011;26164;51.138;16.952;2022-12-29T00:49:34;7.72;;;2.72;;
40459;SDS011;26164;51.138;16.952;2022-12-29T00:52:01;7.00;;;2.85;;
40459;SDS011;26164;51.138;16.952;2022-12-29T00:54:30;5.45;;;2.25;;
40459;SDS011;26164;51.138;16.952;2022-12-29T00:56:59;6.28;;;2.20;;
40459;SDS011;26164;51.138;16.952;2022-12-29T00:59:24;4.85;;;2.30;;
40459;SDS011;26164;51.138;16.952;2022-12-29T01:01:51;7.05;;;2.20;;
40459;SDS011;26164;51.138;16.952;2022-12-29T01:04:19;8.23;;;2.30;;
40459;SDS011;26164;51.138;16.952;2022-12-29T01:06:46;5.50;;;2.03;;
40459;SDS011;26164;51.138;16.952;2022-12-29T01:09:14;5.60;;;2.30;;
40459;SDS011;26164;51.138;16.952;2022-12-29T01:11:59;8.00;;;2.08;;
40459;SDS011;26164;51.138;16.952;2022-12-29T01:14:25;6.30;;;2.42;;
40459;SDS011;26164;51.138;16.952;2022-12-29T01:16:52;5.63;;;2.15;;
40459;SDS011;26164;51.138;16.952;2022-12-29T01:19:18;4.45;;;1.90;;
40459;SDS011;26164;51.138;16.952;2022-12-29T01:21:45;5.63;;;1.90;;
40459;SDS011;26164;51.138;16.952;2022-12-29T01:24:12;6.30;;;2.10;;
40459;SDS011;26164;51.138;16.952;2022-12-29T01:26:39;4.35;;;1.80;;
40459;SDS011;26164;51.138;16.952;2022-12-29T01:29:04;4.35;;;1.80;;
40459;SDS011;26164;51.138;16.952;2022-12-29T01:31:30;5.47;;;1.88;;
40459;SDS011;26164;51.138;16.952;2022-12-29T01:33:56;5.35;;;2.00;;
40459;SDS011;26164;51.138;16.952;2022-12-29T01:36:23;4.65;;;1.70;;
40459;SDS011;26164;51.138;16.952;2022-12-29T01:38:49;4.93;;;2.03;;
40459;SDS011;26164;51.138;16.952;2022-12-29T01:41:15;5.80;;;1.77;;
40459;SDS011;26164;51.138;16.952;2022-12-29T01:51:42;9.38;;;4.15;;
40459;SDS011;26164;51.138;16.952;2022-12-29T01:54:16;15.93;;;11.00;;
40459;SDS011;26164;51.138;16.952;2022-12-29T01:56:48;29.75;;;20.52;;
40459;SDS011;26164;51.138;16.952;2022-12-29T01:59:17;31.95;;;23.65;;
40459;SDS011;26164;51.138;16.952;2022-12-29T02:01:49;29.02;;;18.92;;
40459;SDS011;26164;51.138;16.952;2022-12-29T02:04:16;22.38;;;15.93;;
40459;SDS011;26164;51.138;16.952;2022-12-29T02:06:53;16.02;;;9.55;;
40459;SDS011;26164;51.138;16.952;2022-12-29T02:09:23;8.73;;;4.88;;
40459;SDS011;26164;51.138;16.952;2022-12-29T02:11:50;6.25;;;3.33;;
40459;SDS011;26164;51.138;16.952;2022-12-29T02:14:17;5.68;;;2.78;;
40459;SDS011;26164;51.138;16.952;2022-12-29T02:19:30;4.85;;;1.80;;
40459;SDS011;26164;51.138;16.952;2022-12-29T02:30:38;5.88;;;1.77;;
40459;SDS011;26164;51.138;16.952;2022-12-29T02:41:37;5.88;;;1.35;;
40459;SDS011;26164;51.138;16.952;2022-12-29T02:47:51;3.67;;;1.70;;
40459;SDS011;26164;51.138;16.952;2022-12-29T02:50:39;3.72;;;1.75;;
40459;SDS011;26164;51.138;16.952;2022-12-29T02:53:15;3.08;;;1.23;;
40459;SDS011;26164;51.138;16.952;2022-12-29T02:55:49;2.88;;;1.45;;
40459;SDS011;26164;51.138;16.952;2022-12-29T02:58:20;2.90;;;1.27;;
40459;SDS011;26164;51.138;16.952;2022-12-29T03:03:51;3.20;;;1.45;;
40459;SDS011;26164;51.138;16.952;2022-12-29T03:09:42;3.65;;;1.60;;
40459;SDS011;26164;51.138;16.952;2022-12-29T03:14:57;4.88;;;1.23;;
40459;SDS011;26164;51.138;16.952;2022-12-29T03:17:51;4.07;;;0.93;;
40459;SDS011;26164;51.138;16.952;2022-12-29T03:20:21;2.55;;;0.93;;
40459;SDS011;26164;51.138;16.952;2022-12-29T03:22:55;3.38;;;0.90;;
40459;SDS011;26164;51.138;16.952;2022-12-29T03:25:28;2.42;;;1.00;;
40459;SDS011;26164;51.138;16.952;2022-12-29T03:28:01;2.90;;;0.90;;
40459;SDS011;26164;51.138;16.952;2022-12-29T03:30:37;3.90;;;1.20;;
40459;SDS011;26164;51.138;16.952;2022-12-29T03:33:09;4.72;;;1.42;;
40459;SDS011;26164;51.138;16.952;2022-12-29T03:35:40;2.65;;;0.90;;
40459;SDS011;26164;51.138;16.952;2022-12-29T03:38:23;3.33;;;1.35;;
40459;SDS011;26164;51.138;16.952;2022-12-29T03:40:56;3.95;;;1.00;;
40459;SDS011;26164;51.138;16.952;2022-12-29T03:43:26;4.00;;;0.88;;
40459;SDS011;26164;51.138;16.952;2022-12-29T03:45:54;2.58;;;1.25;;
40459;SDS011;26164;51.138;16.952;2022-12-29T03:48:19;2.92;;;1.10;;
40459;SDS011;26164;51.138;16.952;2022-12-29T03:50:47;3.60;;;1.20;;
40459;SDS011;26164;51.138;16.952;2022-12-29T03:53:13;3.80;;;1.50;;
40459;SDS011;26164;51.138;16.952;2022-12-29T03:55:39;2.60;;;1.23;;
40459;SDS011;26164;51.138;16.952;2022-12-29T03:58:05;4.97;;;1.65;;
40459;SDS011;26164;51.138;16.952;2022-12-29T04:00:46;6.38;;;1.90;;
40459;SDS011;26164;51.138;16.952;2022-12-29T04:03:12;3.63;;;1.60;;
40459;SDS011;26164;51.138;16.952;2022-12-29T04:05:38;4.32;;;1.90;;
40459;SDS011;26164;51.138;16.952;2022-12-29T04:08:04;3.63;;;1.70;;
40459;SDS011;26164;51.138;16.952;2022-12-29T04:10:29;6.80;;;2.53;;
40459;SDS011;26164;51.138;16.952;2022-12-29T04:12:58;5.55;;;2.28;;
40459;SDS011;26164;51.138;16.952;2022-12-29T04:15:25;7.03;;;2.55;;
40459;SDS011;26164;51.138;16.952;2022-12-29T04:17:52;7.35;;;2.40;;
40459;SDS011;26164;51.138;16.952;2022-12-29T04:20:17;5.50;;;2.22;;
40459;SDS011;26164;51.138;16.952;2022-12-29T04:23:06;5.68;;;2.17;;
40459;SDS011;26164;51.138;16.952;2022-12-29T04:25:33;3.72;;;1.70;;
40459;SDS011;26164;51.138;16.952;2022-12-29T04:28:00;5.38;;;2.22;;
40459;SDS011;26164;51.138;16.952;2022-12-29T04:30:49;4.82;;;2.20;;
40459;SDS011;26164;51.138;16.952;2022-12-29T04:33:21;5.10;;;2.55;;
40459;SDS011;26164;51.138;16.952;2022-12-29T04:35:47;4.70;;;1.70;;
40459;SDS011;26164;51.138;16.952;2022-12-29T04:38:13;4.50;;;1.80;;
40459;SDS011;26164;51.138;16.952;2022-12-29T04:40:40;6.60;;;2.05;;
40459;SDS011;26164;51.138;16.952;2022-12-29T04:43:09;4.05;;;1.52;;
40459;SDS011;26164;51.138;16.952;2022-12-29T04:45:50;4.63;;;1.88;;
40459;SDS011;26164;51.138;16.952;2022-12-29T04:48:27;7.43;;;1.83;;
40459;SDS011;26164;51.138;16.952;2022-12-29T04:51:10;3.78;;;1.40;;
40459;SDS011;26164;51.138;16.952;2022-12-29T04:53:38;2.90;;;1.30;;
40459;SDS011;26164;51.138;16.952;2022-12-29T04:56:04;5.03;;;1.60;;
40459;SDS011;26164;51.138;16.952;2022-12-29T04:58:31;3.85;;;1.33;;
40459;SDS011;26164;51.138;16.952;2022-12-29T05:00:58;3.55;;;1.40;;
40459;SDS011;26164;51.138;16.952;2022-12-29T05:03:27;4.53;;;1.30;;
40459;SDS011;26164;51.138;16.952;2022-12-29T05:05:54;2.55;;;1.10;;
40459;SDS011;26164;51.138;16.952;2022-12-29T05:08:21;3.53;;;1.15;;
40459;SDS011;26164;51.138;16.952;2022-12-29T05:10:47;5.32;;;1.25;;
40459;SDS011;26164;51.138;16.952;2022-12-29T05:13:14;2.78;;;1.10;;
40459;SDS011;26164;51.138;16.952;2022-12-29T05:15:41;3.80;;;1.52;;
40459;SDS011;26164;51.138;16.952;2022-12-29T05:18:13;3.55;;;1.35;;
40459;SDS011;26164;51.138;16.952;2022-12-29T05:20:38;3.03;;;1.30;;
40459;SDS011;26164;51.138;16.952;2022-12-29T05:23:07;5.00;;;1.38;;
40459;SDS011;26164;51.138;16.952;2022-12-29T05:25:33;4.25;;;1.23;;
40459;SDS011;26164;51.138;16.952;2022-12-29T05:28:09;6.43;;;1.38;;
40459;SDS011;26164;51.138;16.952;2022-12-29T05:30:48;3.88;;;1.42;;
40459;SDS011;26164;51.138;16.952;2022-12-29T05:33:17;3.10;;;1.35;;
40459;SDS011;26164;51.138;16.952;2022-12-29T05:35:44;4.22;;;1.67;;
40459;SDS011;26164;51.138;16.952;2022-12-29T05:38:10;4.85;;;1.50;;
40459;SDS011;26164;51.138;16.952;2022-12-29T05:40:36;4.82;;;1.58;;
40459;SDS011;26164;51.138;16.952;2022-12-29T05:43:07;4.28;;;1.40;;
40459;SDS011;26164;51.138;16.952;2022-12-29T05:45:53;5.70;;;1.52;;
40459;SDS011;26164;51.138;16.952;2022-12-29T05:48:32;6.32;;;1.52;;
40459;SDS011;26164;51.138;16.952;2022-12-29T05:51:30;3.10;;;1.50;;
40459;SDS011;26164;51.138;16.952;2022-12-29T05:53:56;5.43;;;1.77;;
40459;SDS011;26164;51.138;16.952;2022-12-29T05:56:23;5.38;;;1.77;;
40459;SDS011;26164;51.138;16.952;2022-12-29T05:58:57;5.68;;;1.48;;
40459;SDS011;26164;51.138;16.952;2022-12-29T06:01:23;3.35;;;1.40;;
40459;SDS011;26164;51.138;16.952;2022-12-29T06:03:52;4.28;;;1.58;;
40459;SDS011;26164;51.138;16.952;2022-12-29T06:06:19;4.00;;;1.50;;
40459;SDS011;26164;51.138;16.952;2022-12-29T06:08:46;4.70;;;1.55;;
40459;SDS011;26164;51.138;16.952;2022-12-29T06:11:12;4.82;;;1.50;;
40459;SDS011;26164;51.138;16.952;2022-12-29T06:13:43;6.93;;;1.65;;
40459;SDS011;26164;51.138;16.952;2022-12-29T06:16:08;5.15;;;2.17;;
40459;SDS011;26164;51.138;16.952;2022-12-29T06:18:36;5.78;;;2.22;;
40459;SDS011;26164;51.138;16.952;2022-12-29T06:21:02;4.82;;;2.15;;
40459;SDS011;26164;51.138;16.952;2022-12-29T06:23:30;4.03;;;2.05;;
40459;SDS011;26164;51.138;16.952;2022-12-29T06:25:55;3.90;;;1.92;;
40459;SDS011;26164;51.138;16.952;2022-12-29T06:28:21;4.25;;;2.05;;
40459;SDS011;26164;51.138;16.952;2022-12-29T06:30:47;6.03;;;2.40;;
40459;SDS011;26164;51.138;16.952;2022-12-29T06:33:14;6.18;;;2.50;;
40459;SDS011;26164;51.138;16.952;2022-12-29T06:35:41;5.50;;;2.50;;
40459;SDS011;26164;51.138;16.952;2022-12-29T06:38:08;6.85;;;2.50;;
40459;SDS011;26164;51.138;16.952;2022-12-29T06:40:34;4.40;;;2.30;;
40459;SDS011;26164;51.138;16.952;2022-12-29T06:43:35;8.50;;;2.38;;
40459;SDS011;26164;51.138;16.952;2022-12-29T06:46:23;9.85;;;2.40;;
40459;SDS011;26164;51.138;16.952;2022-12-29T06:48:49;7.93;;;2.63;;
40459;SDS011;26164;51.138;16.952;2022-12-29T06:51:15;5.18;;;2.55;;
40459;SDS011;26164;51.138;16.952;2022-12-29T06:53:41;7.40;;;2.53;;
40459;SDS011;26164;51.138;16.952;2022-12-29T06:56:06;10.88;;;2.22;;
40459;SDS011;26164;51.138;16.952;2022-12-29T06:58:32;6.05;;;2.17;;
40459;SDS011;26164;51.138;16.952;2022-12-29T07:00:58;8.07;;;2.60;;
40459;SDS011;26164;51.138;16.952;2022-12-29T07:03:24;7.47;;;1.83;;
40459;SDS011;26164;51.138;16.952;2022-12-29T07:05:50;6.25;;;1.98;;
40459;SDS011;26164;51.138;16.952;2022-12-29T07:08:16;6.50;;;2.38;;
40459;SDS011;26164;51.138;16.952;2022-12-29T07:10:41;6.88;;;1.80;;
40459;SDS011;26164;51.138;16.952;2022-12-29T07:13:07;6.75;;;2.17;;
40459;SDS011;26164;51.138;16.952;2022-12-29T07:15:33;3.85;;;1.50;;
40459;SDS011;26164;51.138;16.952;2022-12-29T07:18:01;4.07;;;1.60;;
40459;SDS011;26164;51.138;16.952;2022-12-29T07:20:26;3.33;;;1.33;;
40459;SDS011;26164;51.138;16.952;2022-12-29T07:22:53;3.38;;;1.50;;
40459;SDS011;26164;51.138;16.952;2022-12-29T07:25:18;2.80;;;1.42;;
40459;SDS011;26164;51.138;16.952;2022-12-29T07:27:44;4.32;;;1.63;;
40459;SDS011;26164;51.138;16.952;2022-12-29T07:30:10;4.30;;;1.42;;
40459;SDS011;26164;51.138;16.952;2022-12-29T07:32:36;6.30;;;1.50;;
40459;SDS011;26164;51.138;16.952;2022-12-29T07:35:02;4.65;;;1.60;;
40459;SDS011;26164;51.138;16.952;2022-12-29T07:37:28;4.22;;;1.45;;
40459;SDS011;26164;51.138;16.952;2022-12-29T07:39:54;6.25;;;1.73;;
40459;SDS011;26164;51.138;16.952;2022-12-29T07:42:20;3.28;;;1.63;;
40459;SDS011;26164;51.138;16.952;2022-12-29T07:44:50;4.45;;;1.83;;
40459;SDS011;26164;51.138;16.952;2022-12-29T07:47:49;2.80;;;1.58;;
40459;SDS011;26164;51.138;16.952;2022-12-29T07:50:15;4.38;;;1.65;;
40459;SDS011;26164;51.138;16.952;2022-12-29T07:52:41;3.35;;;1.73;;
40459;SDS011;26164;51.138;16.952;2022-12-29T07:55:07;3.95;;;1.73;;
40459;SDS011;26164;51.138;16.952;2022-12-29T07:57:33;4.82;;;1.83;;
40459;SDS011;26164;51.138;16.952;2022-12-29T08:00:00;5.93;;;1.80;;
40459;SDS011;26164;51.138;16.952;2022-12-29T08:02:26;7.55;;;2.08;;
40459;SDS011;26164;51.138;16.952;2022-12-29T08:04:52;3.67;;;1.70;;
40459;SDS011;26164;51.138;16.952;2022-12-29T08:07:18;7.15;;;2.20;;
40459;SDS011;26164;51.138;16.952;2022-12-29T08:09:46;6.78;;;1.92;;
40459;SDS011;26164;51.138;16.952;2022-12-29T08:12:14;6.97;;;1.83;;
40459;SDS011;26164;51.138;16.952;2022-12-29T08:14:40;7.22;;;2.03;;
40459;SDS011;26164;51.138;16.952;2022-12-29T08:17:06;7.93;;;1.48;;
40459;SDS011;26164;51.138;16.952;2022-12-29T08:19:32;4.07;;;1.75;;
40459;SDS011;26164;51.138;16.952;2022-12-29T08:21:58;3.72;;;1.77;;
40459;SDS011;26164;51.138;16.952;2022-12-29T08:24:25;7.13;;;1.77;;
40459;SDS011;26164;51.138;16.952;2022-12-29T08:26:51;5.40;;;1.75;;
40459;SDS011;26164;51.138;16.952;2022-12-29T08:29:17;4.30;;;1.77;;
40459;SDS011;26164;51.138;16.952;2022-12-29T08:31:43;4.82;;;1.90;;
40459;SDS011;26164;51.138;16.952;2022-12-29T08:34:09;11.07;;;2.13;;
40459;SDS011;26164;51.138;16.952;2022-12-29T08:36:35;6.57;;;2.50;;
40459;SDS011;26164;51.138;16.952;2022-12-29T08:39:00;7.25;;;2.28;;
40459;SDS011;26164;51.138;16.952;2022-12-29T08:41:26;10.15;;;2.40;;
40459;SDS011;26164;51.138;16.952;2022-12-29T08:43:52;10.57;;;2.45;;
40459;SDS011;26164;51.138;16.952;2022-12-29T08:46:18;7.68;;;2.00;;
40459;SDS011;26164;51.138;16.952;2022-12-29T08:48:45;3.72;;;1.85;;
40459;SDS011;26164;51.138;16.952;2022-12-29T08:51:11;5.28;;;1.85;;
40459;SDS011;26164;51.138;16.952;2022-12-29T08:53:37;5.78;;;1.90;;
40459;SDS011;26164;51.138;16.952;2022-12-29T08:56:03;6.28;;;2.50;;
40459;SDS011;26164;51.138;16.952;2022-12-29T08:58:30;7.50;;;1.98;;
40459;SDS011;26164;51.138;16.952;2022-12-29T09:00:56;6.72;;;1.58;;
40459;SDS011;26164;51.138;16.952;2022-12-29T09:03:23;7.18;;;1.70;;
40459;SDS011;26164;51.138;16.952;2022-12-29T09:05:50;8.82;;;1.85;;
40459;SDS011;26164;51.138;16.952;2022-12-29T09:08:17;8.35;;;2.22;;
40459;SDS011;26164;51.138;16.952;2022-12-29T09:10:44;7.57;;;2.30;;
40459;SDS011;26164;51.138;16.952;2022-12-29T09:13:13;5.82;;;2.30;;
40459;SDS011;26164;51.138;16.952;2022-12-29T09:15:41;10.60;;;3.00;;
40459;SDS011;26164;51.138;16.952;2022-12-29T09:18:08;11.73;;;2.70;;
40459;SDS011;26164;51.138;16.952;2022-12-29T09:20:35;8.18;;;3.20;;
40459;SDS011;26164;51.138;16.952;2022-12-29T09:23:02;9.45;;;3.50;;
40459;SDS011;26164;51.138;16.952;2022-12-29T09:25:29;8.27;;;3.08;;
40459;SDS011;26164;51.138;16.952;2022-12-29T09:27:55;6.20;;;2.63;;
40459;SDS011;26164;51.138;16.952;2022-12-29T09:30:21;5.85;;;2.10;;
40459;SDS011;26164;51.138;16.952;2022-12-29T09:32:48;5.05;;;1.98;;
40459;SDS011;26164;51.138;16.952;2022-12-29T09:35:15;4.82;;;1.98;;
40459;SDS011;26164;51.138;16.952;2022-12-29T09:37:42;5.30;;;1.75;;
40459;SDS011;26164;51.138;16.952;2022-12-29T09:40:31;4.30;;;1.90;;
40459;SDS011;26164;51.138;16.952;2022-12-29T09:45:29;7.70;;;2.05;;
40459;SDS011;26164;51.138;16.952;2022-12-29T09:48:03;4.47;;;1.80;;
40459;SDS011;26164;51.138;16.952;2022-12-29T09:50:34;3.42;;;1.75;;
40459;SDS011;26164;51.138;16.952;2022-12-29T09:53:13;4.95;;;2.25;;
40459;SDS011;26164;51.138;16.952;2022-12-29T09:55:48;4.13;;;1.90;;
40459;SDS011;26164;51.138;16.952;2022-12-29T10:03:17;6.13;;;2.40;;
40459;SDS011;26164;51.138;16.952;2022-12-29T10:08:34;7.47;;;2.10;;
40459;SDS011;26164;51.138;16.952;2022-12-29T10:11:09;13.18;;;2.50;;
40459;SDS011;26164;51.138;16.952;2022-12-29T10:21:43;4.47;;;1.77;;
40459;SDS011;26164;51.138;16.952;2022-12-29T10:24:13;6.30;;;2.08;;
40459;SDS011;26164;51.138;16.952;2022-12-29T10:26:43;5.22;;;2.13;;
40459;SDS011;26164;51.138;16.952;2022-12-29T10:29:15;5.63;;;2.00;;
40459;SDS011;26164;51.138;16.952;2022-12-29T10:31:56;5.57;;;2.40;;
40459;SDS011;26164;51.138;16.952;2022-12-29T10:34:27;4.90;;;2.10;;
40459;SDS011;26164;51.138;16.952;2022-12-29T10:37:09;4.35;;;1.98;;
40459;SDS011;26164;51.138;16.952;2022-12-29T10:39:45;6.00;;;2.42;;
40459;SDS011;26164;51.138;16.952;2022-12-29T10:42:28;6.03;;;2.10;;
40459;SDS011;26164;51.138;16.952;2022-12-29T10:44:58;5.68;;;2.28;;
40459;SDS011;26164;51.138;16.952;2022-12-29T10:47:27;5.28;;;2.05;;
40459;SDS011;26164;51.138;16.952;2022-12-29T10:49:58;7.47;;;2.25;;
40459;SDS011;26164;51.138;16.952;2022-12-29T10:52:26;11.88;;;2.20;;
40459;SDS011;26164;51.138;16.952;2022-12-29T10:54:56;4.20;;;2.05;;
40459;SDS011;26164;51.138;16.952;2022-12-29T10:57:27;8.60;;;2.55;;
40459;SDS011;26164;51.138;16.952;2022-12-29T10:59:58;7.80;;;2.25;;
40459;SDS011;26164;51.138;16.952;2022-12-29T11:08:10;12.90;;;2.20;;
40459;SDS011;26164;51.138;16.952;2022-12-29T11:10:43;7.22;;;2.20;;
40459;SDS011;26164;51.138;16.952;2022-12-29T11:13:28;8.50;;;2.00;;
40459;SDS011;26164;51.138;16.952;2022-12-29T11:15:59;3.88;;;2.03;;
40459;SDS011;26164;51.138;16.952;2022-12-29T11:21:03;5.13;;;2.38;;
40459;SDS011;26164;51.138;16.952;2022-12-29T11:23:39;5.07;;;2.22;;
40459;SDS011;26164;51.138;16.952;2022-12-29T11:28:46;7.40;;;2.20;;
40459;SDS011;26164;51.138;16.952;2022-12-29T11:31:30;10.20;;;2.80;;
40459;SDS011;26164;51.138;16.952;2022-12-29T11:34:07;14.55;;;2.80;;
40459;SDS011;26164;51.138;16.952;2022-12-29T11:36:33;8.50;;;2.90;;
40459;SDS011;26164;51.138;16.952;2022-12-29T11:39:01;6.85;;;2.75;;
40459;SDS011;26164;51.138;16.952;2022-12-29T11:41:28;12.00;;;2.63;;
40459;SDS011;26164;51.138;16.952;2022-12-29T11:43:57;8.43;;;3.22;;
40459;SDS011;26164;51.138;16.952;2022-12-29T11:46:32;6.57;;;2.45;;
40459;SDS011;26164;51.138;16.952;2022-12-29T11:49:00;7.38;;;2.30;;
40459;SDS011;26164;51.138;16.952;2022-12-29T11:51:28;7.38;;;2.15;;
40459;SDS011;26164;51.138;16.952;2022-12-29T11:53:58;9.00;;;2.30;;
40459;SDS011;26164;51.138;16.952;2022-12-29T11:56:36;5.63;;;2.22;;
40459;SDS011;26164;51.138;16.952;2022-12-29T12:04:45;5.55;;;2.47;;
40459;SDS011;26164;51.138;16.952;2022-12-29T12:07:24;6.93;;;2.50;;
40459;SDS011;26164;51.138;16.952;2022-12-29T12:10:04;6.70;;;2.00;;
40459;SDS011;26164;51.138;16.952;2022-12-29T12:12:35;5.07;;;2.22;;
40459;SDS011;26164;51.138;16.952;2022-12-29T12:15:08;7.60;;;3.20;;
40459;SDS011;26164;51.138;16.952;2022-12-29T12:18:02;6.80;;;2.50;;
40459;SDS011;26164;51.138;16.952;2022-12-29T12:20:45;8.43;;;2.30;;
40459;SDS011;26164;51.138;16.952;2022-12-29T12:26:20;5.30;;;2.17;;
40459;SDS011;26164;51.138;16.952;2022-12-29T12:31:25;7.72;;;2.38;;
40459;SDS011;26164;51.138;16.952;2022-12-29T12:34:52;7.90;;;2.47;;
40459;SDS011;26164;51.138;16.952;2022-12-29T12:39:40;4.95;;;2.25;;
40459;SDS011;26164;51.138;16.952;2022-12-29T12:45:01;7.55;;;2.88;;
40459;SDS011;26164;51.138;16.952;2022-12-29T13:00:24;7.43;;;2.95;;
40459;SDS011;26164;51.138;16.952;2022-12-29T13:16:40;7.15;;;2.60;;
40459;SDS011;26164;51.138;16.952;2022-12-29T13:22:04;7.47;;;2.80;;
40459;SDS011;26164;51.138;16.952;2022-12-29T13:24:47;6.03;;;2.60;;
40459;SDS011;26164;51.138;16.952;2022-12-29T13:30:18;7.00;;;3.10;;
40459;SDS011;26164;51.138;16.952;2022-12-29T13:35:36;12.80;;;3.38;;
40459;SDS011;26164;51.138;16.952;2022-12-29T13:38:18;6.13;;;2.40;;
40459;SDS011;26164;51.138;16.952;2022-12-29T13:41:05;7.63;;;3.10;;
40459;SDS011;26164;51.138;16.952;2022-12-29T13:43:35;6.88;;;3.00;;
40459;SDS011;26164;51.138;16.952;2022-12-29T13:46:27;7.70;;;3.40;;
40459;SDS011;26164;51.138;16.952;2022-12-29T13:48:58;8.20;;;3.00;;
40459;SDS011;26164;51.138;16.952;2022-12-29T13:51:56;6.47;;;2.95;;
40459;SDS011;26164;51.138;16.952;2022-12-29T13:54:39;10.82;;;3.50;;
40459;SDS011;26164;51.138;16.952;2022-12-29T14:00:02;7.95;;;3.47;;
40459;SDS011;26164;51.138;16.952;2022-12-29T14:07:44;10.20;;;3.40;;
40459;SDS011;26164;51.138;16.952;2022-12-29T14:10:25;7.78;;;3.47;;
40459;SDS011;26164;51.138;16.952;2022-12-29T14:15:57;9.45;;;2.92;;
40459;SDS011;26164;51.138;16.952;2022-12-29T14:18:25;9.85;;;3.83;;
40459;SDS011;26164;51.138;16.952;2022-12-29T14:23:41;8.18;;;3.20;;
40459;SDS011;26164;51.138;16.952;2022-12-29T14:29:15;6.88;;;3.10;;
40459;SDS011;26164;51.138;16.952;2022-12-29T14:31:42;6.75;;;3.80;;
40459;SDS011;26164;51.138;16.952;2022-12-29T14:36:40;6.82;;;3.22;;
40459;SDS011;26164;51.138;16.952;2022-12-29T14:39:29;7.07;;;3.42;;
40459;SDS011;26164;51.138;16.952;2022-12-29T14:47:27;11.77;;;4.30;;
40459;SDS011;26164;51.138;16.952;2022-12-29T14:50:02;10.38;;;4.50;;
40459;SDS011;26164;51.138;16.952;2022-12-29T14:52:54;14.13;;;4.75;;
40459;SDS011;26164;51.138;16.952;2022-12-29T15:00:58;11.00;;;4.80;;
40459;SDS011;26164;51.138;16.952;2022-12-29T15:03:29;11.15;;;5.13;;
40459;SDS011;26164;51.138;16.952;2022-12-29T15:05:58;11.77;;;5.70;;
40459;SDS011;26164;51.138;16.952;2022-12-29T15:08:33;14.57;;;6.15;;
40459;SDS011;26164;51.138;16.952;2022-12-29T15:13:44;14.98;;;6.60;;
40459;SDS011;26164;51.138;16.952;2022-12-29T15:18:50;12.52;;;6.60;;
40459;SDS011;26164;51.138;16.952;2022-12-29T15:21:16;15.85;;;7.20;;
40459;SDS011;26164;51.138;16.952;2022-12-29T15:23:46;14.45;;;7.30;;
40459;SDS011;26164;51.138;16.952;2022-12-29T15:26:13;17.55;;;7.50;;
40459;SDS011;26164;51.138;16.952;2022-12-29T15:28:46;12.57;;;7.30;;
40459;SDS011;26164;51.138;16.952;2022-12-29T15:31:14;16.08;;;7.25;;
40459;SDS011;26164;51.138;16.952;2022-12-29T15:33:54;14.25;;;7.63;;
40459;SDS011;26164;51.138;16.952;2022-12-29T15:36:34;14.05;;;7.32;;
40459;SDS011;26164;51.138;16.952;2022-12-29T15:39:20;17.08;;;7.03;;
40459;SDS011;26164;51.138;16.952;2022-12-29T15:41:54;14.15;;;6.60;;
40459;SDS011;26164;51.138;16.952;2022-12-29T15:44:35;14.55;;;7.50;;
40459;SDS011;26164;51.138;16.952;2022-12-29T15:47:14;16.70;;;6.95;;
40459;SDS011;26164;51.138;16.952;2022-12-29T15:49:49;20.98;;;7.70;;
40459;SDS011;26164;51.138;16.952;2022-12-29T15:52:22;15.32;;;7.97;;
40459;SDS011;26164;51.138;16.952;2022-12-29T15:54:49;17.83;;;8.00;;
40459;SDS011;26164;51.138;16.952;2022-12-29T15:57:21;15.02;;;7.85;;
40459;SDS011;26164;51.138;16.952;2022-12-29T15:59:48;16.75;;;7.97;;
40459;SDS011;26164;51.138;16.952;2022-12-29T16:02:15;15.90;;;7.90;;
40459;SDS011;26164;51.138;16.952;2022-12-29T16:04:40;16.55;;;7.95;;
40459;SDS011;26164;51.138;16.952;2022-12-29T16:10:01;16.77;;;7.65;;
40459;SDS011;26164;51.138;16.952;2022-12-29T16:12:41;15.80;;;8.25;;
40459;SDS011;26164;51.138;16.952;2022-12-29T16:15:11;16.92;;;7.57;;
40459;SDS011;26164;51.138;16.952;2022-12-29T16:17:46;18.73;;;7.65;;
40459;SDS011;26164;51.138;16.952;2022-12-29T16:22:49;19.25;;;7.88;;
40459;SDS011;26164;51.138;16.952;2022-12-29T16:27:51;19.50;;;7.88;;
40459;SDS011;26164;51.138;16.952;2022-12-29T16:30:26;17.08;;;8.30;;
40459;SDS011;26164;51.138;16.952;2022-12-29T16:32:57;16.58;;;9.30;;
40459;SDS011;26164;51.138;16.952;2022-12-29T16:35:26;21.48;;;9.38;;
40459;SDS011;26164;51.138;16.952;2022-12-29T16:38:19;23.08;;;12.70;;
40459;SDS011;26164;51.138;16.952;2022-12-29T16:40:59;19.85;;;9.75;;
40459;SDS011;26164;51.138;16.952;2022-12-29T16:43:28;17.73;;;9.13;;
40459;SDS011;26164;51.138;16.952;2022-12-29T16:48:36;17.60;;;8.75;;
40459;SDS011;26164;51.138;16.952;2022-12-29T16:51:13;16.75;;;8.63;;
40459;SDS011;26164;51.138;16.952;2022-12-29T16:53:47;16.58;;;8.50;;
40459;SDS011;26164;51.138;16.952;2022-12-29T16:56:17;16.58;;;9.05;;
40459;SDS011;26164;51.138;16.952;2022-12-29T16:58:46;19.33;;;8.98;;
40459;SDS011;26164;51.138;16.952;2022-12-29T17:01:13;17.13;;;8.55;;
40459;SDS011;26164;51.138;16.952;2022-12-29T17:03:46;18.25;;;8.85;;
40459;SDS011;26164;51.138;16.952;2022-12-29T17:06:16;19.30;;;9.45;;
40459;SDS011;26164;51.138;16.952;2022-12-29T17:08:44;19.85;;;9.65;;
40459;SDS011;26164;51.138;16.952;2022-12-29T17:11:30;18.25;;;9.10;;
40459;SDS011;26164;51.138;16.952;2022-12-29T17:14:18;21.45;;;9.98;;
40459;SDS011;26164;51.138;16.952;2022-12-29T17:16:44;16.90;;;8.63;;
40459;SDS011;26164;51.138;16.952;2022-12-29T17:19:15;20.65;;;9.32;;
40459;SDS011;26164;51.138;16.952;2022-12-29T17:21:43;20.52;;;9.38;;
40459;SDS011;26164;51.138;16.952;2022-12-29T17:24:13;20.73;;;9.60;;
40459;SDS011;26164;51.138;16.952;2022-12-29T17:26:42;19.30;;;9.43;;
40459;SDS011;26164;51.138;16.952;2022-12-29T17:29:10;22.02;;;10.07;;
40459;SDS011;26164;51.138;16.952;2022-12-29T17:31:54;37.53;;;17.95;;
40459;SDS011;26164;51.138;16.952;2022-12-29T17:34:20;24.50;;;12.60;;
40459;SDS011;26164;51.138;16.952;2022-12-29T17:36:47;19.02;;;9.73;;
40459;SDS011;26164;51.138;16.952;2022-12-29T17:39:13;18.40;;;9.90;;
40459;SDS011;26164;51.138;16.952;2022-12-29T17:41:39;22.35;;;10.48;;
40459;SDS011;26164;51.138;16.952;2022-12-29T17:44:05;20.65;;;10.25;;
40459;SDS011;26164;51.138;16.952;2022-12-29T17:46:32;21.15;;;10.43;;